createdAt,value
2019-03-19T00:00:47.917Z,101567.69
2019-03-19T00:03:18.127Z,101577.39
2019-03-19T00:05:48.182Z,101582.53
2019-03-19T00:08:18.220Z,101579.00
2019-03-19T00:10:48.262Z,101581.00
2019-03-19T00:13:18.827Z,101584.81
2019-03-19T00:15:48.919Z,101593.96
2019-03-19T00:18:18.975Z,101590.34
2019-03-19T00:20:49.013Z,101585.74
2019-03-19T00:23:18.992Z,101594.58
2019-03-19T00:25:49.010Z,101601.06
2019-03-19T00:28:19.012Z,101612.28
2019-03-19T00:30:49.003Z,101601.39
2019-03-19T00:33:18.992Z,101616.63
2019-03-19T00:35:48.956Z,101625.91
2019-03-19T00:38:18.996Z,101648.94
2019-03-19T00:40:48.954Z,101633.92
2019-03-19T00:43:18.943Z,101622.30
2019-03-19T00:45:48.909Z,101610.90
2019-03-19T00:48:18.895Z,101622.99
2019-03-19T00:50:48.879Z,101624.33
2019-03-19T00:53:18.884Z,101620.19
2019-03-19T00:56:08.477Z,101633.37
2019-03-19T00:58:38.473Z,101630.11
2019-03-19T01:01:08.442Z,101630.55
2019-03-19T01:03:38.458Z,101629.96
2019-03-19T01:06:08.491Z,101639.77
2019-03-19T01:08:38.551Z,101632.45
2019-03-19T01:11:08.540Z,101633.26
2019-03-19T01:13:38.538Z,101630.59
2019-03-19T01:16:08.632Z,101635.60
2019-03-19T01:18:38.703Z,101636.30
2019-03-19T01:21:08.729Z,101639.22
2019-03-19T01:23:38.740Z,101635.28
2019-03-19T01:26:08.842Z,101628.52
2019-03-19T01:28:38.861Z,101630.22
2019-03-19T01:31:09.189Z,101632.94
2019-03-19T01:33:39.267Z,101637.89
2019-03-19T01:36:09.391Z,101649.89
2019-03-19T01:38:39.547Z,101652.70
2019-03-19T01:41:09.619Z,101653.80
2019-03-19T01:43:39.670Z,101660.11
2019-03-19T01:46:09.794Z,101664.36
2019-03-19T01:48:39.824Z,101669.45
2019-03-19T01:51:09.923Z,101678.99
2019-03-19T01:53:39.999Z,101681.38
2019-03-19T01:56:10.086Z,101673.55
2019-03-19T01:58:40.153Z,101678.75
2019-03-19T02:01:10.267Z,101682.58
2019-03-19T02:03:40.345Z,101678.50
2019-03-19T02:06:11.424Z,101679.02
2019-03-19T02:08:41.493Z,101687.20
2019-03-19T02:11:11.611Z,101684.09
2019-03-19T02:13:41.618Z,101688.67
2019-03-19T02:16:11.657Z,101693.21
2019-03-19T02:18:41.669Z,101696.30
2019-03-19T02:21:11.687Z,101695.50
2019-03-19T02:23:41.711Z,101692.69
2019-03-19T02:26:16.503Z,101701.25
2019-03-19T02:28:43.494Z,101706.98
2019-03-19T02:31:13.532Z,101694.46
2019-03-19T02:33:43.552Z,101700.91
2019-03-19T02:36:13.556Z,101696.70
2019-03-19T02:38:43.541Z,101704.78
2019-03-19T02:41:13.585Z,101698.01
2019-03-19T02:43:43.591Z,101694.77
2019-03-19T02:46:13.611Z,101694.56
2019-03-19T02:48:43.612Z,101704.45
2019-03-19T02:51:13.641Z,101713.29
2019-03-19T02:53:43.653Z,101717.94
2019-03-19T02:56:13.703Z,101724.59
2019-03-19T02:58:43.794Z,101732.13
2019-03-19T03:01:13.895Z,101732.41
2019-03-19T03:03:43.949Z,101725.52
2019-03-19T03:06:14.016Z,101733.76
2019-03-19T03:08:44.090Z,101730.52
2019-03-19T03:11:14.109Z,101735.98
2019-03-19T03:13:44.172Z,101736.29
2019-03-19T03:16:14.219Z,101734.00
2019-03-19T03:18:44.203Z,101737.31
2019-03-19T03:21:14.223Z,101737.98
2019-03-19T03:23:44.221Z,101743.02
2019-03-19T03:26:14.222Z,101744.14
2019-03-19T03:28:44.287Z,101746.23
2019-03-19T03:31:14.341Z,101756.26
2019-03-19T03:33:44.369Z,101757.42
2019-03-19T03:36:14.448Z,101762.19
2019-03-19T03:38:44.508Z,101759.47
2019-03-19T03:41:14.570Z,101764.63
2019-03-19T03:43:44.589Z,101763.31
2019-03-19T03:46:14.601Z,101763.39
2019-03-19T03:48:44.604Z,101767.66
2019-03-19T03:51:14.632Z,101765.11
2019-03-19T03:53:44.634Z,101775.03
2019-03-19T03:56:14.870Z,101779.41
2019-03-19T03:58:59.593Z,101785.98
2019-03-19T04:01:16.655Z,101783.80
2019-03-19T04:03:46.655Z,101787.61
2019-03-19T04:06:18.235Z,101787.08
2019-03-19T04:08:48.281Z,101790.23
2019-03-19T04:11:18.296Z,101793.55
2019-03-19T04:13:48.305Z,101799.05
2019-03-19T04:16:18.340Z,101810.38
2019-03-19T04:18:49.450Z,101816.91
2019-03-19T04:21:19.543Z,101829.40
2019-03-19T04:23:49.611Z,101817.59
2019-03-19T04:26:19.657Z,101823.69
2019-03-19T04:28:52.168Z,101818.39
2019-03-19T04:31:22.232Z,101814.78
2019-03-19T04:33:52.224Z,101812.06
2019-03-19T04:36:22.247Z,101816.42
2019-03-19T04:38:52.269Z,101815.09
2019-03-19T04:41:22.337Z,101818.39
2019-03-19T04:43:52.363Z,101822.73
2019-03-19T04:46:22.416Z,101834.88
2019-03-19T04:48:52.456Z,101831.90
2019-03-19T04:51:22.504Z,101836.90
2019-03-19T04:53:52.894Z,101848.34
2019-03-19T04:56:22.935Z,101850.81
2019-03-19T04:58:53.060Z,101854.58
2019-03-19T05:01:23.188Z,101851.56
2019-03-19T05:03:53.176Z,101848.27
2019-03-19T05:06:23.216Z,101844.27
2019-03-19T05:08:53.262Z,101856.95
2019-03-19T05:11:23.319Z,101847.31
2019-03-19T05:13:53.399Z,101857.09
2019-03-19T05:16:23.426Z,101856.56
2019-03-19T05:18:53.458Z,101848.95
2019-03-19T05:21:23.438Z,101857.48
2019-03-19T05:23:53.484Z,101859.12
2019-03-19T05:26:23.504Z,101870.13
2019-03-19T05:28:53.572Z,101862.64
2019-03-19T05:31:23.582Z,101861.95
2019-03-19T05:33:53.628Z,101866.63
2019-03-19T05:36:23.618Z,101861.95
2019-03-19T05:39:09.323Z,101866.47
2019-03-19T05:41:35.935Z,101865.34
2019-03-19T05:44:06.036Z,101863.65
2019-03-19T05:46:36.088Z,101859.86
2019-03-19T05:49:06.140Z,101866.34
2019-03-19T05:51:36.154Z,101870.81
2019-03-19T05:54:06.207Z,101869.33
2019-03-19T05:56:36.684Z,101874.97
2019-03-19T05:59:06.700Z,101877.95
2019-03-19T06:01:36.733Z,101874.77
2019-03-19T06:04:06.800Z,101892.73
2019-03-19T06:06:36.837Z,101891.23
2019-03-19T06:09:08.791Z,101898.37
2019-03-19T06:11:38.848Z,101906.86
2019-03-19T06:14:08.863Z,101905.86
2019-03-19T06:16:38.877Z,101906.19
2019-03-19T06:19:09.013Z,101911.50
2019-03-19T06:21:39.036Z,101922.95
2019-03-19T06:24:09.981Z,101923.95
2019-03-19T06:26:39.994Z,101938.05
2019-03-19T06:29:10.062Z,101934.07
2019-03-19T06:31:40.081Z,101936.56
2019-03-19T06:34:10.101Z,101943.70
2019-03-19T06:36:40.093Z,101952.20
2019-03-19T06:39:10.134Z,101954.50
2019-03-19T06:41:40.142Z,101948.48
2019-03-19T06:44:10.249Z,101954.27
2019-03-19T06:46:40.261Z,101968.28
2019-03-19T06:49:10.305Z,101967.42
2019-03-19T06:51:40.347Z,101966.37
2019-03-19T06:54:10.370Z,101970.39
2019-03-19T06:56:40.414Z,101984.56
2019-03-19T06:59:10.431Z,101983.88
2019-03-19T07:01:40.431Z,101980.58
2019-03-19T07:04:10.647Z,101973.47
2019-03-19T07:06:40.663Z,101973.28
2019-03-19T07:09:10.734Z,101978.27
2019-03-19T07:11:40.777Z,101981.09
2019-03-19T07:14:10.847Z,101977.23
2019-03-19T07:16:40.857Z,101979.88
2019-03-19T07:19:10.898Z,101987.88
2019-03-19T07:21:40.977Z,101999.20
2019-03-19T07:24:11.015Z,101993.50
2019-03-19T07:26:40.989Z,101999.63
2019-03-19T07:29:11.078Z,101998.83
2019-03-19T07:31:41.091Z,102005.97
2019-03-19T07:34:11.132Z,102008.30
2019-03-19T07:36:41.149Z,102007.17
2019-03-19T07:39:11.192Z,102004.31
2019-03-19T07:41:41.234Z,102011.97
2019-03-19T07:44:11.251Z,102016.13
2019-03-19T07:46:41.241Z,102004.94
2019-03-19T07:49:11.277Z,102012.40
2019-03-19T07:51:41.334Z,102007.40
2019-03-19T07:54:11.391Z,102013.56
2019-03-19T07:56:41.436Z,102010.75
2019-03-19T07:59:11.467Z,102023.36
2019-03-19T08:01:41.559Z,102018.66
2019-03-19T08:04:11.562Z,102022.41
2019-03-19T08:06:41.639Z,102021.72
2019-03-19T08:09:11.699Z,102020.05
2019-03-19T08:11:41.721Z,102034.48
2019-03-19T08:14:11.841Z,102037.30
2019-03-19T08:16:41.926Z,102037.45
2019-03-19T08:19:11.991Z,102040.91
2019-03-19T08:21:42.009Z,102043.96
2019-03-19T08:24:12.127Z,102046.94
2019-03-19T08:26:42.319Z,102047.78
2019-03-19T08:29:12.435Z,102038.95
2019-03-19T08:31:42.396Z,102044.91
2019-03-19T08:34:12.518Z,102053.54
2019-03-19T08:36:42.617Z,102051.18
2019-03-19T08:39:12.689Z,102069.48
2019-03-19T08:41:42.808Z,102071.44
2019-03-19T08:44:12.910Z,102073.75
2019-03-19T08:46:42.995Z,102072.52
2019-03-19T08:49:13.044Z,102078.91
2019-03-19T08:51:43.087Z,102073.82
2019-03-19T08:54:13.203Z,102083.00
2019-03-19T08:56:43.246Z,102072.44
2019-03-19T08:59:13.292Z,102076.70
2019-03-19T09:01:43.320Z,102076.91
2019-03-19T09:04:13.354Z,102079.42
2019-03-19T09:06:43.387Z,102073.79
2019-03-19T09:09:13.463Z,102078.86
2019-03-19T09:11:43.483Z,102078.28
2019-03-19T09:14:13.566Z,102078.61
2019-03-19T09:16:44.466Z,102083.30
2019-03-19T09:19:14.510Z,102095.97
2019-03-19T09:21:44.548Z,102091.67
2019-03-19T09:24:14.596Z,102082.75
2019-03-19T09:26:44.614Z,102090.59
2019-03-19T09:29:17.205Z,102092.14
2019-03-19T09:31:46.407Z,102094.47
2019-03-19T09:34:16.459Z,102106.80
2019-03-19T09:36:56.747Z,102095.95
2019-03-19T09:39:18.207Z,102103.12
2019-03-19T09:41:48.228Z,102110.09
2019-03-19T09:44:18.362Z,102109.83
2019-03-19T09:46:48.466Z,102103.72
2019-03-19T09:49:18.486Z,102104.89
2019-03-19T09:51:48.488Z,102107.66
2019-03-19T09:54:18.514Z,102116.25
2019-03-19T09:56:48.565Z,102121.05
2019-03-19T09:59:26.835Z,102120.68
2019-03-19T10:01:50.288Z,102124.55
2019-03-19T10:04:20.400Z,102125.76
2019-03-19T10:06:50.451Z,102126.77
2019-03-19T10:09:20.470Z,102121.53
2019-03-19T10:11:50.510Z,102132.06
2019-03-19T10:14:20.534Z,102134.00
2019-03-19T10:16:50.584Z,102138.70
2019-03-19T10:19:20.640Z,102136.06
2019-03-19T10:21:50.702Z,102136.52
2019-03-19T10:24:20.726Z,102137.16
2019-03-19T10:26:50.832Z,102140.41
2019-03-19T10:29:20.875Z,102142.23
2019-03-19T10:31:50.942Z,102143.92
2019-03-19T10:34:20.981Z,102155.17
2019-03-19T10:36:51.092Z,102160.81
2019-03-19T10:39:21.094Z,102157.34
2019-03-19T10:41:51.153Z,102150.81
2019-03-19T10:44:21.233Z,102149.86
2019-03-19T10:46:51.275Z,102147.28
2019-03-19T10:49:21.310Z,102148.06
2019-03-19T10:51:51.385Z,102149.16
2019-03-19T10:54:21.445Z,102143.99
2019-03-19T10:56:51.515Z,102146.88
2019-03-19T10:59:21.720Z,102142.08
2019-03-19T11:01:51.781Z,102158.91
2019-03-19T11:04:21.854Z,102156.45
2019-03-19T11:06:51.943Z,102162.98
2019-03-19T11:09:21.981Z,102160.42
2019-03-19T11:11:52.032Z,102170.79
2019-03-19T11:14:22.075Z,102177.02
2019-03-19T11:16:52.119Z,102184.62
2019-03-19T11:19:22.160Z,102179.48
2019-03-19T11:21:52.231Z,102182.30
2019-03-19T11:24:22.310Z,102186.19
2019-03-19T11:26:52.536Z,102181.11
2019-03-19T11:29:22.658Z,102188.88
2019-03-19T11:31:52.724Z,102185.50
2019-03-19T11:34:22.748Z,102178.85
2019-03-19T11:36:57.801Z,102179.34
2019-03-19T11:39:24.617Z,102180.19
2019-03-19T11:41:54.664Z,102186.38
2019-03-19T11:44:24.673Z,102179.25
2019-03-19T11:46:54.726Z,102181.72
2019-03-19T11:49:24.764Z,102193.69
2019-03-19T11:51:54.810Z,102188.16
2019-03-19T11:54:24.837Z,102189.91
2019-03-19T11:56:54.978Z,102194.92
2019-03-19T11:59:24.995Z,102180.78
2019-03-19T12:01:55.127Z,102178.70
2019-03-19T12:04:25.212Z,102174.39
2019-03-19T12:06:55.273Z,102183.88
2019-03-19T12:09:25.326Z,102189.78
2019-03-19T12:11:55.405Z,102197.16
2019-03-19T12:14:25.485Z,102188.05
2019-03-19T12:16:55.702Z,102193.17
2019-03-19T12:19:25.807Z,102187.34
2019-03-19T12:21:55.907Z,102192.52
2019-03-19T12:24:26.001Z,102189.02
2019-03-19T12:26:56.039Z,102190.28
2019-03-19T12:29:26.125Z,102199.02
2019-03-19T12:31:56.204Z,102206.67
2019-03-19T12:34:26.265Z,102207.89
2019-03-19T12:36:56.331Z,102206.69
2019-03-19T12:39:26.339Z,102207.77
2019-03-19T12:41:56.407Z,102191.44
2019-03-19T12:44:26.450Z,102198.23
2019-03-19T12:46:56.499Z,102187.27
2019-03-19T12:49:26.635Z,102188.80
2019-03-19T12:51:56.687Z,102194.28
2019-03-19T12:54:26.723Z,102191.98
2019-03-19T12:56:56.857Z,102202.03
2019-03-19T12:59:26.891Z,102209.89
2019-03-19T13:01:56.979Z,102222.94
2019-03-19T13:04:26.986Z,102218.00
2019-03-19T13:06:57.121Z,102226.70
2019-03-19T13:09:27.283Z,102220.77
2019-03-19T13:11:57.331Z,102221.15
2019-03-19T13:14:27.353Z,102221.90
2019-03-19T13:16:57.365Z,102217.13
2019-03-19T13:19:27.449Z,102219.87
2019-03-19T13:21:57.533Z,102224.56
2019-03-19T13:24:27.601Z,102237.19
2019-03-19T13:26:57.659Z,102217.14
2019-03-19T13:29:27.833Z,102222.98
2019-03-19T13:31:57.865Z,102230.59
2019-03-19T13:34:27.957Z,102219.23
2019-03-19T13:36:58.621Z,102227.73
2019-03-19T13:39:28.915Z,102225.88
2019-03-19T13:41:59.104Z,102231.56
2019-03-19T13:44:29.242Z,102228.99
2019-03-19T13:46:59.435Z,102227.03
2019-03-19T13:49:29.495Z,102247.81
2019-03-19T13:51:59.510Z,102239.77
2019-03-19T13:54:29.644Z,102246.23
2019-03-19T13:56:59.843Z,102239.86
2019-03-19T13:59:29.957Z,102242.91
2019-03-19T14:02:07.966Z,102239.94
2019-03-19T14:04:38.019Z,102250.07
2019-03-19T14:07:08.069Z,102247.27
2019-03-19T14:09:38.128Z,102257.16
2019-03-19T14:12:08.154Z,102256.89
2019-03-19T14:14:38.174Z,102259.45
2019-03-19T14:17:08.232Z,102256.84
2019-03-19T14:19:38.274Z,102260.45
2019-03-19T14:22:08.332Z,102257.19
2019-03-19T14:24:38.419Z,102255.97
2019-03-19T14:27:08.559Z,102250.48
2019-03-19T14:29:38.638Z,102254.63
2019-03-19T14:32:08.668Z,102253.16
2019-03-19T14:34:38.717Z,102265.61
2019-03-19T14:37:08.743Z,102267.06
2019-03-19T14:39:38.818Z,102266.31
2019-03-19T14:42:08.850Z,102275.51
2019-03-19T14:44:38.875Z,102275.33
2019-03-19T14:47:09.026Z,102271.92
2019-03-19T14:49:46.647Z,102281.28
2019-03-19T14:52:10.902Z,102274.45
2019-03-19T14:54:40.918Z,102279.63
2019-03-19T14:57:10.976Z,102283.84
2019-03-19T14:59:41.032Z,102284.13
2019-03-19T15:02:11.148Z,102282.41
2019-03-19T15:04:41.182Z,102275.17
2019-03-19T15:07:11.257Z,102281.56
2019-03-19T15:09:42.085Z,102273.84
2019-03-19T15:12:12.126Z,102288.61
2019-03-19T15:14:42.234Z,102289.36
2019-03-19T15:17:12.301Z,102285.20
2019-03-19T15:19:42.386Z,102293.85
2019-03-19T15:22:12.438Z,102288.09
2019-03-19T15:24:42.536Z,102288.45
2019-03-19T15:27:12.636Z,102286.67
2019-03-19T15:29:42.740Z,102294.23
2019-03-19T15:32:12.878Z,102298.94
2019-03-19T15:34:43.008Z,102293.27
2019-03-19T15:37:13.062Z,102296.45
2019-03-19T15:39:43.122Z,102305.70
2019-03-19T15:42:13.179Z,102307.57
2019-03-19T15:44:43.280Z,102305.08
2019-03-19T15:47:13.348Z,102305.77
2019-03-19T15:49:43.440Z,102303.80
2019-03-19T15:52:13.472Z,102317.64
2019-03-19T15:54:43.610Z,102312.63
2019-03-19T15:57:13.660Z,102318.23
2019-03-19T15:59:43.712Z,102309.05
2019-03-19T16:02:13.720Z,102312.48
2019-03-19T16:04:43.827Z,102320.05
2019-03-19T16:07:14.394Z,102317.50
2019-03-19T16:09:44.758Z,102309.60
2019-03-19T16:12:15.029Z,102322.69
2019-03-19T16:14:45.124Z,102329.98
2019-03-19T16:17:15.185Z,102335.98
2019-03-19T16:19:45.240Z,102335.44
2019-03-19T16:22:15.431Z,102341.28
2019-03-19T16:24:45.542Z,102337.84
2019-03-19T16:27:15.756Z,102341.77
2019-03-19T16:29:45.838Z,102339.92
2019-03-19T16:32:15.861Z,102345.28
2019-03-19T16:34:45.930Z,102345.17
2019-03-19T16:37:15.948Z,102355.00
2019-03-19T16:39:46.032Z,102363.30
2019-03-19T16:42:16.059Z,102366.70
2019-03-19T16:44:46.159Z,102362.51
2019-03-19T16:47:16.271Z,102371.03
2019-03-19T16:49:46.344Z,102364.52
2019-03-19T16:52:16.379Z,102369.42
2019-03-19T16:54:46.511Z,102368.56
2019-03-19T16:57:16.659Z,102375.44
2019-03-19T16:59:46.997Z,102377.64
2019-03-19T17:02:17.036Z,102382.55
2019-03-19T17:04:47.115Z,102380.09
2019-03-19T17:07:17.164Z,102383.66
2019-03-19T17:09:47.246Z,102391.52
2019-03-19T17:12:17.355Z,102391.15
2019-03-19T17:14:47.439Z,102394.68
2019-03-19T17:17:17.571Z,102401.61
2019-03-19T17:19:47.634Z,102398.75
2019-03-19T17:22:17.710Z,102404.05
2019-03-19T17:24:47.877Z,102404.20
2019-03-19T17:27:17.953Z,102411.78
2019-03-19T17:29:48.097Z,102411.84
2019-03-19T17:32:18.209Z,102407.12
2019-03-19T17:34:48.251Z,102423.08
2019-03-19T17:37:18.311Z,102422.20
2019-03-19T17:39:48.380Z,102423.28
2019-03-19T17:42:18.442Z,102428.76
2019-03-19T17:44:48.511Z,102429.21
2019-03-19T17:47:18.583Z,102429.74
2019-03-19T17:49:48.639Z,102431.32
2019-03-19T17:52:18.739Z,102435.23
2019-03-19T17:54:48.831Z,102436.50
2019-03-19T17:57:18.891Z,102437.73
2019-03-19T17:59:48.933Z,102436.79
2019-03-19T18:02:24.034Z,102440.50
2019-03-19T18:04:50.788Z,102445.04
2019-03-19T18:07:20.867Z,102442.51
2019-03-19T18:09:50.921Z,102452.11
2019-03-19T18:12:21.010Z,102449.55
2019-03-19T18:14:51.042Z,102460.71
2019-03-19T18:17:21.100Z,102460.72
2019-03-19T18:19:51.153Z,102461.73
2019-03-19T18:22:21.242Z,102461.33
2019-03-19T18:24:51.282Z,102466.45
2019-03-19T18:27:21.467Z,102467.55
2019-03-19T18:29:51.543Z,102469.05
2019-03-19T18:32:21.625Z,102472.55
2019-03-19T18:34:51.659Z,102470.98
2019-03-19T18:37:21.747Z,102476.57
2019-03-19T18:39:51.797Z,102481.16
2019-03-19T18:42:21.892Z,102482.88
2019-03-19T18:44:51.923Z,102489.08
2019-03-19T18:47:21.994Z,102487.86
2019-03-19T18:49:52.078Z,102486.63
2019-03-19T18:52:22.166Z,102492.04
2019-03-19T18:54:52.254Z,102500.73
2019-03-19T18:57:22.371Z,102495.59
2019-03-19T18:59:52.433Z,102491.15
2019-03-19T19:02:22.523Z,102494.83
2019-03-19T19:04:52.670Z,102498.57
2019-03-19T19:07:22.745Z,102501.73
2019-03-19T19:09:52.901Z,102505.76
2019-03-19T19:12:22.986Z,102513.12
2019-03-19T19:14:53.032Z,102515.51
2019-03-19T19:17:23.402Z,102518.95
2019-03-19T19:19:53.515Z,102522.88
2019-03-19T19:22:23.571Z,102523.28
2019-03-19T19:24:53.604Z,102527.35
2019-03-19T19:27:23.676Z,102527.09
2019-03-19T19:29:53.722Z,102528.55
2019-03-19T19:32:23.784Z,102531.91
2019-03-19T19:34:53.819Z,102529.23
2019-03-19T19:37:23.940Z,102526.05
2019-03-19T19:39:53.984Z,102531.75
2019-03-19T19:42:24.075Z,102535.63
2019-03-19T19:44:54.111Z,102535.45
2019-03-19T19:47:24.186Z,102537.45
2019-03-19T19:49:54.234Z,102541.97
2019-03-19T19:52:24.295Z,102551.81
2019-03-19T19:54:54.452Z,102547.28
2019-03-19T19:57:24.594Z,102552.81
2019-03-19T19:59:54.658Z,102564.98
2019-03-19T20:02:24.749Z,102561.67
2019-03-19T20:05:02.601Z,102565.47
2019-03-19T20:07:26.668Z,102564.27
2019-03-19T20:09:56.781Z,102569.61
2019-03-19T20:12:26.913Z,102574.14
2019-03-19T20:15:00.071Z,102577.11
2019-03-19T20:17:30.274Z,102578.64
2019-03-19T20:20:00.499Z,102579.98
2019-03-19T20:22:36.914Z,102582.46
2019-03-19T20:25:07.176Z,102581.63
2019-03-19T20:27:37.290Z,102584.45
2019-03-19T20:30:09.074Z,102583.09
2019-03-19T20:32:39.207Z,102584.31
2019-03-19T20:35:09.808Z,102587.48
2019-03-19T20:37:40.074Z,102593.09
2019-03-19T20:40:10.872Z,102595.31
2019-03-19T20:42:40.949Z,102600.36
2019-03-19T20:45:11.834Z,102603.44
2019-03-19T20:47:41.910Z,102600.09
2019-03-19T20:50:14.761Z,102605.16
2019-03-19T20:52:44.846Z,102605.96
2019-03-19T20:55:14.892Z,102610.16
2019-03-19T20:57:44.992Z,102607.94
2019-03-19T21:00:16.171Z,102611.05
2019-03-19T21:02:46.237Z,102615.72
2019-03-19T21:05:16.283Z,102611.68
2019-03-19T21:07:46.350Z,102613.42
2019-03-19T21:10:17.889Z,102619.48
2019-03-19T21:12:47.948Z,102619.91
2019-03-19T21:15:19.649Z,102623.88
2019-03-19T21:17:49.887Z,102624.00
2019-03-19T21:20:19.972Z,102635.38
2019-03-19T21:22:59.609Z,102638.14
2019-03-19T21:25:29.671Z,102627.48
2019-03-19T21:27:59.722Z,102642.88
2019-03-19T21:30:29.784Z,102645.80
2019-03-19T21:32:59.893Z,102644.33
2019-03-19T21:35:30.045Z,102644.09
2019-03-19T21:38:00.180Z,102647.06
2019-03-19T21:40:30.222Z,102647.49
2019-03-19T21:43:00.286Z,102636.95
2019-03-19T21:45:30.363Z,102639.36
2019-03-19T21:48:00.470Z,102632.81
2019-03-19T21:50:30.519Z,102633.63
2019-03-19T21:53:00.527Z,102640.37
2019-03-19T21:55:30.610Z,102642.58
2019-03-19T21:58:00.608Z,102641.44
2019-03-19T22:00:30.651Z,102638.19
2019-03-19T22:03:00.753Z,102648.69
2019-03-19T22:05:30.801Z,102640.23
2019-03-19T22:08:00.846Z,102641.10
2019-03-19T22:10:30.912Z,102643.19
2019-03-19T22:13:00.926Z,102643.42
2019-03-19T22:15:30.983Z,102648.26
2019-03-19T22:18:01.100Z,102644.10
2019-03-19T22:20:31.203Z,102647.56
2019-03-19T22:23:01.223Z,102644.83
2019-03-19T22:25:31.266Z,102647.16
2019-03-19T22:28:01.283Z,102639.55
2019-03-19T22:30:31.380Z,102641.52
2019-03-19T22:33:01.855Z,102643.09
2019-03-19T22:35:31.891Z,102631.59
2019-03-19T22:38:01.948Z,102630.73
2019-03-19T22:40:32.358Z,102635.06
2019-03-19T22:43:02.440Z,102639.09
2019-03-19T22:45:32.543Z,102638.10
2019-03-19T22:48:02.637Z,102633.87
2019-03-19T22:50:32.751Z,102635.42
2019-03-19T22:53:02.848Z,102637.23
2019-03-19T22:55:32.965Z,102633.97
2019-03-19T22:58:03.018Z,102640.27
2019-03-19T23:00:44.632Z,102641.09
2019-03-19T23:03:14.710Z,102639.69
2019-03-19T23:05:44.719Z,102640.28
2019-03-19T23:08:14.763Z,102642.70
2019-03-19T23:10:44.814Z,102650.16
2019-03-19T23:13:15.549Z,102657.97
2019-03-19T23:15:45.594Z,102655.47
2019-03-19T23:18:16.025Z,102655.88
2019-03-19T23:20:46.129Z,102649.56
2019-03-19T23:23:16.281Z,102655.03
2019-03-19T23:25:46.365Z,102660.48
2019-03-19T23:28:16.592Z,102657.77
2019-03-19T23:30:46.735Z,102659.89
2019-03-19T23:33:16.589Z,102658.82
2019-03-19T23:35:46.637Z,102663.55
2019-03-19T23:38:16.665Z,102661.47
2019-03-19T23:40:46.686Z,102671.70
2019-03-19T23:43:16.613Z,102670.33
2019-03-19T23:45:46.599Z,102677.44
2019-03-19T23:48:16.548Z,102677.50
2019-03-19T23:50:46.527Z,102681.11
2019-03-19T23:53:16.504Z,102666.27
2019-03-19T23:55:46.513Z,102672.41
2019-03-19T23:58:16.467Z,102678.89
